Time;durP1;ratioP1;P1;durP2;ratioP2;P2;SDS_P1;SDS_P2;PMS_P1;PMS_P2;Temp;Humidity;BMP_temperature;BMP_pressure;BME280_temperature;BME280_humidity;BME280_pressure;Samples;Min_cycle;Max_cycle;Signal;HPM_P1;HPM_P2
2023/04/12 07:28:59;;;;;;;3.03;2.77;;;5.50;99.90;;;;;;5132523;27;20290;-77
2023/04/12 07:33:55;;;;;;;3.23;2.93;;;5.60;99.90;;;;;;5132051;27;20298;-77
2023/04/12 07:38:41;;;;;;;5.80;4.33;;;5.70;99.90;;;;;;5133198;27;20275;-77
2023/04/12 07:43:45;;;;;;;6.17;3.77;;;5.90;99.90;;;;;;5132407;27;20284;-77
2023/04/12 07:48:16;;;;;;;3.37;1.97;;;6.30;99.90;;;;;;5132714;27;20272;-77
2023/04/12 07:52:02;;;;;;;3.13;1.53;;;6.20;99.90;;;;;;5132920;27;20276;-79
2023/04/12 07:56:06;;;;;;;3.30;2.10;;;6.50;99.90;;;;;;5112165;27;20268;-77
2023/04/12 08:00:21;;;;;;;1.63;1.30;;;6.50;99.90;;;;;;5133260;27;20268;-78
2023/04/12 08:04:29;;;;;;;2.73;1.73;;;;;;;;;;5132964;27;20289;-77
2023/04/12 08:08:08;;;;;;;1.30;1.10;;;6.60;99.90;;;;;;5133465;27;20277;-77
2023/04/12 08:11:50;;;;;;;1.50;1.40;;;6.60;99.90;;;;;;5112021;27;20279;-77
2023/04/12 08:14:15;;;;;;;1.87;1.23;;;6.90;99.90;;;;;;5106779;28;20203;-79
2023/04/12 08:16:41;;;;;;;2.40;1.40;;;6.90;99.90;;;;;;5092045;28;20180;-78
2023/04/12 08:19:07;;;;;;;1.93;1.40;;;7.00;99.90;;;;;;5091889;28;20169;-77
2023/04/12 08:23:59;;;;;;;1.77;1.10;;;;;;;;;;5132432;27;20295;-77
2023/04/12 08:27:57;;;;;;;1.20;1.07;;;7.00;99.90;;;;;;5086520;27;2062514;-77
2023/04/12 08:32:11;;;;;;;2.17;1.30;;;7.10;99.90;;;;;;5134373;27;20277;-78
2023/04/12 08:35:58;;;;;;;2.87;1.80;;;7.40;99.90;;;;;;5132608;27;20280;-77
2023/04/12 08:38:25;;;;;;;2.97;1.60;;;7.50;99.90;;;;;;5131816;28;20172;-77
2023/04/12 08:40:50;;;;;;;2.17;1.30;;;7.70;99.90;;;;;;5131728;28;20196;-77
2023/04/12 08:43:21;;;;;;;1.47;1.20;;;7.80;99.90;;;;;;5116492;28;20192;-78
2023/04/12 08:45:48;;;;;;;6.10;1.20;;;7.80;99.90;;;;;;5130872;28;20178;-78
2023/04/12 08:48:16;;;;;;;3.00;1.10;;;8.10;99.90;;;;;;5130486;28;20233;-77
2023/04/12 08:50:43;;;;;;;1.00;0.90;;;8.20;99.90;;;;;;5131499;27;20186;-78
2023/04/12 08:53:09;;;;;;;1.00;0.80;;;8.20;99.90;;;;;;5130016;28;20204;-77
2023/04/12 08:55:35;;;;;;;2.10;0.93;;;8.50;99.90;;;;;;5131949;27;20689;-79
2023/04/12 08:58:06;;;;;;;1.10;1.00;;;8.80;99.90;;;;;;5132871;27;20169;-77
2023/04/12 09:00:36;;;;;;;1.63;1.03;;;8.90;99.90;;;;;;5129879;28;20214;-77
2023/04/12 09:03:01;;;;;;;1.20;0.90;;;9.00;99.90;;;;;;5130016;28;20191;-77
2023/04/12 09:05:29;;;;;;;2.47;1.27;;;9.30;99.90;;;;;;5130087;28;20541;-77
2023/04/12 09:07:55;;;;;;;0.70;0.70;;;9.40;99.90;;;;;;5130082;28;20273;-78
2023/04/12 09:10:33;;;;;;;1.20;0.90;;;9.60;99.90;;;;;;5129912;28;20632;-77
2023/04/12 09:13:00;;;;;;;1.00;0.80;;;9.70;99.90;;;;;;5129937;28;20203;-78
2023/04/12 09:15:25;;;;;;;0.80;0.60;;;9.60;99.90;;;;;;5129909;28;20567;-78
2023/04/12 09:18:10;;;;;;;0.57;0.57;;;9.90;99.90;;;;;;5131974;27;20171;-78
2023/04/12 09:20:37;;;;;;;0.90;0.70;;;10.20;99.90;;;;;;5130755;28;20202;-78
2023/04/12 09:23:22;;;;;;;0.80;0.70;;;10.40;99.90;;;;;;5130857;28;20195;-78
2023/04/12 09:25:51;;;;;;;1.20;1.00;;;10.50;99.90;;;;;;5130714;28;20171;-77
2023/04/12 09:28:25;;;;;;;0.67;0.63;;;10.60;99.90;;;;;;5129736;28;20183;-77
2023/04/12 09:30:52;;;;;;;1.30;0.90;;;10.80;99.90;;;;;;5129558;28;20258;-77
2023/04/12 09:33:31;;;;;;;1.07;0.70;;;11.00;99.90;;;;;;5130268;28;20203;-77
2023/04/12 09:36:00;;;;;;;0.60;0.60;;;11.40;99.90;;;;;;5130542;28;20312;-77
2023/04/12 09:38:26;;;;;;;1.90;0.93;;;11.90;99.90;;;;;;5134181;28;20179;-77
2023/04/12 09:40:53;;;;;;;1.07;0.60;;;12.40;99.90;;;;;;5131599;28;20177;-78
2023/04/12 09:43:34;;;;;;;1.00;0.80;;;12.50;99.90;;;;;;5131128;27;20194;-77
2023/04/12 09:46:13;;;;;;;0.90;0.77;;;12.80;99.90;;;;;;5125169;27;20621;-78
2023/04/12 09:48:40;;;;;;;0.60;0.60;;;12.70;99.90;;;;;;5116483;28;20283;-78
2023/04/12 09:51:06;;;;;;;1.47;0.70;;;12.40;99.90;;;;;;5115961;28;20174;-77
2023/04/12 09:53:39;;;;;;;1.17;0.60;;;11.90;99.90;;;;;;5117109;28;20217;-77
2023/04/12 09:56:09;;;;;;;1.37;0.70;;;11.60;99.90;;;;;;5115812;28;20179;-78
2023/04/12 09:58:37;;;;;;;0.63;0.53;;;11.70;99.90;;;;;;5115932;28;20210;-78
2023/04/12 10:01:05;;;;;;;1.07;0.70;;;11.80;99.90;;;;;;5116898;28;20221;-77
2023/04/12 10:03:32;;;;;;;1.50;0.70;;;11.70;99.90;;;;;;5117713;28;20271;-78
2023/04/12 10:05:58;;;;;;;0.43;0.43;;;11.70;99.90;;;;;;5117147;28;20179;-78
2023/04/12 10:08:25;;;;;;;0.57;0.50;;;11.70;99.90;;;;;;5116823;28;20172;-77
2023/04/12 10:10:53;;;;;;;0.60;0.60;;;11.70;99.90;;;;;;5116279;28;20203;-77
2023/04/12 10:13:20;;;;;;;1.13;0.67;;;11.90;99.90;;;;;;5116144;28;20190;-77
2023/04/12 10:15:49;;;;;;;0.90;0.73;;;11.90;99.90;;;;;;5115074;28;20235;-78
2023/04/12 10:18:17;;;;;;;0.90;0.63;;;11.90;99.90;;;;;;5115394;28;20175;-78
2023/04/12 10:20:44;;;;;;;1.47;0.80;;;11.70;99.90;;;;;;5116496;27;20566;-78
2023/04/12 10:23:11;;;;;;;1.00;0.63;;;11.80;99.90;;;;;;5115338;28;20195;-78
2023/04/12 10:25:42;;;;;;;1.40;1.00;;;12.00;99.90;;;;;;5118077;28;20179;-78
2023/04/12 10:28:20;;;;;;;1.10;0.80;;;12.00;99.90;;;;;;5117493;28;20244;-78
2023/04/12 10:30:51;;;;;;;1.13;0.90;;;12.00;99.90;;;;;;5116069;28;20175;-78
2023/04/12 10:33:19;;;;;;;0.90;0.70;;;12.10;99.90;;;;;;5116584;28;20204;-78
2023/04/12 10:35:53;;;;;;;1.73;0.80;;;11.80;99.90;;;;;;5116038;28;20720;-77
2023/04/12 10:38:20;;;;;;;1.47;0.80;;;11.60;99.90;;;;;;5114778;28;20178;-78
2023/04/12 10:41:20;;;;;;;2.33;1.17;;;11.60;99.90;;;;;;5114546;28;20184;-78
2023/04/12 10:43:47;;;;;;;0.80;0.80;;;11.70;99.90;;;;;;5119989;28;20191;-77
2023/04/12 10:46:37;;;;;;;1.30;1.10;;;11.70;99.90;;;;;;5126573;28;20193;-78
2023/04/12 10:49:13;;;;;;;1.00;0.73;;;11.70;99.90;;;;;;5127048;28;20168;-78
2023/04/12 10:51:59;;;;;;;1.10;1.00;;;11.90;99.90;;;;;;5116935;28;20224;-78
2023/04/12 10:54:25;;;;;;;1.07;0.90;;;12.20;99.90;;;;;;5117028;28;20272;-78
2023/04/12 10:56:51;;;;;;;2.73;0.90;;;12.60;99.90;;;;;;5117643;28;20559;-78
2023/04/12 10:59:17;;;;;;;1.40;0.97;;;12.90;99.90;;;;;;5116994;28;20168;-78
2023/04/12 11:02:09;;;;;;;2.73;1.00;;;13.20;99.90;;;;;;5117546;28;20617;-78
2023/04/12 11:04:35;;;;;;;1.40;1.07;;;13.70;99.90;;;;;;5115756;28;20294;-78
2023/04/12 11:07:08;;;;;;;1.17;1.07;;;13.70;99.90;;;;;;5118085;28;20172;-78
2023/04/12 11:09:43;;;;;;;2.20;1.00;;;13.80;99.90;;;;;;5116795;28;20167;-78
2023/04/12 11:12:11;;;;;;;1.47;0.70;;;14.00;99.90;;;;;;5116862;28;20178;-78
2023/04/12 11:14:43;;;;;;;0.87;0.70;;;14.10;99.90;;;;;;5114943;28;20676;-77
2023/04/12 11:17:08;;;;;;;1.77;1.10;;;14.30;99.90;;;;;;5116655;28;20192;-77
2023/04/12 11:19:40;;;;;;;3.10;0.73;;;14.30;99.90;;;;;;5115329;28;20172;-78
2023/04/12 11:22:14;;;;;;;1.10;0.80;;;14.20;99.90;;;;;;5115419;28;20272;-78
2023/04/12 11:24:42;;;;;;;1.30;1.00;;;14.20;99.90;;;;;;5115560;28;20249;-77
2023/04/12 11:27:09;;;;;;;0.97;0.90;;;14.00;99.90;;;;;;5114149;28;20187;-78
2023/04/12 11:29:35;;;;;;;2.23;1.30;;;13.80;99.90;;;;;;5113876;28;20164;-78
2023/04/12 11:32:06;;;;;;;3.70;1.20;;;13.70;99.90;;;;;;5119574;27;20184;-77
2023/04/12 11:34:33;;;;;;;1.67;0.90;;;13.50;99.90;;;;;;5134973;27;20702;-78
2023/04/12 11:36:59;;;;;;;2.37;1.17;;;13.40;99.90;;;;;;5134558;27;20179;-78
2023/04/12 11:39:27;;;;;;;2.00;1.27;;;13.30;99.90;;;;;;5134430;27;20175;-78
2023/04/12 11:41:53;;;;;;;2.50;1.40;;;13.40;99.90;;;;;;5133811;27;20258;-77
2023/04/12 11:44:21;;;;;;;2.30;1.10;;;13.50;99.90;;;;;;5133642;27;20286;-78
2023/04/12 11:46:47;;;;;;;3.37;1.17;;;13.50;99.90;;;;;;5134814;27;20175;-78
2023/04/12 11:49:15;;;;;;;1.53;1.03;;;13.50;99.90;;;;;;5134869;27;20175;-77
2023/04/12 11:51:42;;;;;;;4.00;1.40;;;13.40;99.90;;;;;;5133722;27;20546;-77
2023/04/12 11:54:07;;;;;;;3.23;0.90;;;13.40;99.90;;;;;;5116467;27;20672;-77
2023/04/12 11:56:33;;;;;;;6.90;1.70;;;13.20;99.90;;;;;;5135587;27;20188;-78
2023/04/12 11:58:58;;;;;;;5.20;2.47;;;13.30;99.90;;;;;;5136136;27;20171;-78
2023/04/12 12:01:26;;;;;;;2.27;1.07;;;13.30;99.90;;;;;;5135432;27;20206;-77
2023/04/12 12:03:53;;;;;;;2.57;1.00;;;13.40;99.90;;;;;;5135011;27;20281;-77
2023/04/12 12:06:19;;;;;;;1.30;0.93;;;13.40;99.90;;;;;;5133693;27;20179;-78
2023/04/12 12:08:45;;;;;;;1.63;1.10;;;13.50;99.90;;;;;;5120155;27;20324;-78
2023/04/12 12:11:11;;;;;;;3.37;1.30;;;13.80;99.90;;;;;;5112778;28;20183;-78
2023/04/12 12:13:49;;;;;;;2.00;1.30;;;14.00;99.90;;;;;;5120137;28;20207;-78
2023/04/12 12:16:16;;;;;;;3.43;1.30;;;14.00;99.90;;;;;;5114481;28;20186;-78
2023/04/12 12:18:43;;;;;;;2.27;1.27;;;13.90;99.90;;;;;;5113327;28;20204;-77
2023/04/12 12:21:11;;;;;;;4.00;1.47;;;13.80;99.90;;;;;;5114636;28;20183;-77
2023/04/12 12:23:37;;;;;;;5.63;3.57;;;13.80;99.90;;;;;;5114219;28;20226;-78
2023/04/12 12:26:05;;;;;;;4.70;3.47;;;13.90;99.90;;;;;;5114154;28;20174;-77
2023/04/12 12:28:38;;;;;;;1.93;1.47;;;14.00;99.90;;;;;;5114009;28;20176;-78
2023/04/12 12:31:09;;;;;;;1.63;1.40;;;14.50;99.90;;;;;;5113946;28;20156;-77
2023/04/12 12:33:41;;;;;;;10.93;7.00;;;14.70;99.90;;;;;;5113460;28;20213;-77
2023/04/12 12:36:08;;;;;;;4.17;2.17;;;15.00;99.90;;;;;;5113801;28;20155;-77
2023/04/12 12:38:38;;;;;;;4.30;2.00;;;15.00;99.90;;;;;;5113586;28;20232;-77
2023/04/12 12:41:14;;;;;;;3.93;3.03;;;15.10;99.90;;;;;;5113477;28;20180;-77
2023/04/12 12:43:46;;;;;;;3.83;1.27;;;15.20;99.90;;;;;;5113379;28;20612;-76
2023/04/12 12:46:12;;;;;;;3.00;1.37;;;15.60;99.90;;;;;;5113492;28;20160;-77
2023/04/12 12:48:40;;;;;;;2.43;2.00;;;15.60;99.90;;;;;;5113528;28;20244;-77
2023/04/12 12:51:10;;;;;;;5.60;2.73;;;15.50;99.90;;;;;;5113174;28;20173;-76
2023/04/12 12:53:37;;;;;;;2.57;1.70;;;15.50;99.90;;;;;;5113667;28;20195;-76
2023/04/12 12:56:03;;;;;;;2.30;1.30;;;15.30;99.90;;;;;;5113238;28;20715;-77
2023/04/12 12:58:29;;;;;;;1.57;1.30;;;14.80;99.90;;;;;;5113178;28;20172;-77
2023/04/12 13:00:55;;;;;;;3.23;1.33;;;14.30;99.90;;;;;;5111929;28;20173;-77
2023/04/12 13:03:21;;;;;;;2.47;1.20;;;14.10;99.90;;;;;;5094898;28;20223;-78
2023/04/12 13:05:47;;;;;;;1.43;1.20;;;14.10;99.90;;;;;;5113199;28;20692;-77
2023/04/12 13:08:13;;;;;;;2.03;1.20;;;15.30;99.90;;;;;;5113338;28;20526;-77
2023/04/12 13:10:39;;;;;;;2.20;1.47;;;15.80;99.90;;;;;;5113346;28;20180;-77
2023/04/12 13:13:05;;;;;;;3.80;2.67;;;15.50;99.90;;;;;;5116552;28;20191;-78
2023/04/12 13:15:30;;;;;;;3.57;1.87;;;15.20;99.90;;;;;;5115529;28;20663;-81
2023/04/12 13:17:56;;;;;;;3.13;1.70;;;14.80;99.90;;;;;;5113799;28;20264;-79
2023/04/12 13:20:22;;;;;;;1.90;1.30;;;14.50;99.90;;;;;;5116099;28;20174;-78
2023/04/12 13:22:50;;;;;;;4.33;1.10;;;14.60;99.90;;;;;;5116980;28;20200;-79
2023/04/12 13:25:18;;;;;;;3.17;1.07;;;14.60;99.90;;;;;;5116916;28;20235;-78
2023/04/12 13:27:44;;;;;;;3.67;1.20;;;14.50;99.90;;;;;;5118784;28;20179;-78
2023/04/12 13:30:10;;;;;;;1.50;1.20;;;14.50;99.90;;;;;;5123450;28;20171;-78
2023/04/12 13:32:36;;;;;;;2.50;1.10;;;14.40;99.90;;;;;;5122059;28;20185;-78
2023/04/12 13:35:03;;;;;;;1.53;1.10;;;14.40;99.90;;;;;;5119365;28;20275;-78
2023/04/12 13:37:28;;;;;;;4.67;1.80;;;15.50;99.90;;;;;;5123040;28;20176;-78
2023/04/12 13:39:54;;;;;;;3.70;1.50;;;15.40;99.90;;;;;;5129615;28;20202;-78
2023/04/12 13:42:21;;;;;;;3.43;1.43;;;14.80;99.90;;;;;;5126674;28;20224;-78
2023/04/12 13:44:47;;;;;;;1.80;1.30;;;14.70;99.90;;;;;;5122291;28;20601;-78
2023/04/12 13:47:13;;;;;;;6.87;1.40;;;14.30;99.90;;;;;;5118626;28;20175;-77
2023/04/12 13:49:39;;;;;;;2.60;1.40;;;13.80;99.90;;;;;;5123728;27;20184;-78
2023/04/12 13:52:06;;;;;;;1.47;1.30;;;13.90;99.90;;;;;;5138453;27;20537;-77
2023/04/12 13:54:32;;;;;;;1.57;1.27;;;13.80;99.90;;;;;;5138143;27;20259;-77
2023/04/12 13:56:58;;;;;;;2.60;1.20;;;13.70;99.90;;;;;;5139679;27;20168;-78
2023/04/12 13:59:25;;;;;;;2.60;1.40;;;13.50;99.90;;;;;;5138844;27;20167;-78
2023/04/12 14:01:50;;;;;;;2.23;1.53;;;13.20;99.90;;;;;;5139248;27;20246;-78
2023/04/12 14:04:16;;;;;;;1.70;1.10;;;13.10;99.90;;;;;;5140392;27;20221;-78
2023/04/12 14:06:44;;;;;;;2.70;1.40;;;13.00;99.90;;;;;;5139284;27;20178;-78
2023/04/12 14:09:30;;;;;;;1.57;0.90;;;12.90;99.90;;;;;;5139222;27;20257;-78
2023/04/12 14:11:58;;;;;;;2.43;1.20;;;12.90;99.90;;;;;;5138892;27;20171;-78
2023/04/12 14:14:26;;;;;;;1.83;0.87;;;12.90;99.90;;;;;;5138575;27;20719;-78
2023/04/12 14:16:55;;;;;;;1.67;0.90;;;12.90;99.90;;;;;;5138716;27;20170;-79
2023/04/12 14:19:21;;;;;;;2.00;1.00;;;12.80;99.90;;;;;;5137318;27;20539;-78
2023/04/12 14:21:48;;;;;;;2.63;1.57;;;12.80;99.90;;;;;;5137102;27;20175;-78
2023/04/12 14:24:17;;;;;;;1.53;0.90;;;12.80;99.90;;;;;;5138749;27;20222;-78
2023/04/12 14:26:44;;;;;;;1.33;0.90;;;12.90;99.90;;;;;;5138764;27;20228;-78
2023/04/12 14:29:09;;;;;;;1.37;0.90;;;13.00;99.90;;;;;;5138922;27;20167;-78
2023/04/12 14:31:36;;;;;;;1.70;1.00;;;12.90;99.90;;;;;;5138482;27;20193;-79
2023/04/12 14:34:02;;;;;;;2.07;1.10;;;12.70;99.90;;;;;;5137476;27;20222;-78
2023/04/12 14:36:28;;;;;;;2.20;0.90;;;12.70;99.90;;;;;;5137662;27;20612;-78
2023/04/12 14:38:54;;;;;;;1.23;0.90;;;12.60;99.90;;;;;;5136443;27;20228;-78
2023/04/12 14:41:20;;;;;;;2.23;1.10;;;12.60;99.90;;;;;;5137095;27;20179;-78
2023/04/12 14:43:45;;;;;;;1.20;1.00;;;12.80;99.90;;;;;;5136461;27;20202;-79
2023/04/12 14:46:12;;;;;;;2.87;1.17;;;;;;;;;;5137074;27;20186;-78
2023/04/12 14:48:38;;;;;;;2.47;0.93;;;13.60;99.90;;;;;;5137499;27;20174;-78
2023/04/12 14:51:04;;;;;;;5.40;2.87;;;13.60;99.90;;;;;;5138643;27;20508;-79
2023/04/12 14:53:30;;;;;;;1.70;1.20;;;13.30;99.90;;;;;;5137337;27;20561;-78
2023/04/12 14:55:56;;;;;;;2.50;1.13;;;13.30;99.90;;;;;;5138029;27;20213;-78
2023/04/12 14:58:21;;;;;;;2.13;1.20;;;13.30;99.90;;;;;;5136442;27;20257;-78
2023/04/12 15:00:47;;;;;;;2.53;1.00;;;13.60;99.90;;;;;;5136607;27;20201;-78
2023/04/12 15:03:14;;;;;;;2.13;0.90;;;14.10;99.90;;;;;;5135354;27;20194;-78
2023/04/12 15:05:39;;;;;;;2.77;1.33;;;14.10;99.90;;;;;;5136182;27;20218;-78
2023/04/12 15:08:05;;;;;;;1.37;1.03;;;14.50;99.90;;;;;;5136252;27;20175;-78
2023/04/12 15:10:31;;;;;;;3.00;1.67;;;15.10;99.90;;;;;;5134611;27;20186;-77
2023/04/12 15:12:59;;;;;;;30.93;20.60;;;14.60;99.90;;;;;;5138198;27;20202;-79
2023/04/12 15:15:25;;;;;;;1.37;0.90;;;14.10;99.90;;;;;;5138094;27;20537;-78
2023/04/12 15:17:50;;;;;;;1.27;1.17;;;13.60;99.90;;;;;;5137079;27;20183;-79
2023/04/12 15:20:16;;;;;;;2.27;1.50;;;13.10;99.90;;;;;;5136594;27;20176;-78
2023/04/12 15:22:42;;;;;;;2.33;1.00;;;12.90;99.90;;;;;;5136091;27;20179;-79
2023/04/12 15:25:10;;;;;;;0.73;0.73;;;12.70;99.90;;;;;;5135775;27;20175;-78
2023/04/12 15:27:36;;;;;;;1.60;0.90;;;12.90;99.90;;;;;;5138766;27;20217;-79
2023/04/12 15:30:11;;;;;;;3.57;1.10;;;12.90;99.90;;;;;;5136733;27;20211;-77
2023/04/12 15:32:36;;;;;;;1.60;1.00;;;12.80;99.90;;;;;;5134514;27;20624;-78
2023/04/12 15:35:04;;;;;;;3.53;1.20;;;12.80;99.90;;;;;;5136680;27;20206;-78
2023/04/12 15:37:33;;;;;;;2.43;1.20;;;12.80;99.90;;;;;;5137148;27;20580;-77
2023/04/12 15:40:12;;;;;;;0.97;0.90;;;12.80;99.90;;;;;;5136605;27;20170;-78
2023/04/12 15:42:42;;;;;;;1.70;1.20;;;12.80;99.90;;;;;;5135496;27;20178;-78
2023/04/12 15:45:09;;;;;;;2.70;1.13;;;12.70;99.90;;;;;;5136006;27;20171;-77
2023/04/12 15:47:35;;;;;;;1.30;1.00;;;12.60;99.90;;;;;;5134569;27;20198;-78
2023/04/12 15:50:06;;;;;;;1.30;1.03;;;12.50;99.90;;;;;;5135871;27;20580;-78
2023/04/12 15:52:32;;;;;;;1.33;1.00;;;12.40;99.90;;;;;;5135239;27;20246;-78
2023/04/12 15:54:58;;;;;;;1.67;0.97;;;12.30;99.90;;;;;;5138718;27;20685;-77
2023/04/12 15:57:25;;;;;;;4.13;3.13;;;12.20;99.90;;;;;;5134612;27;20533;-77
2023/04/12 15:59:53;;;;;;;3.70;2.17;;;12.10;99.90;;;;;;5136246;27;20163;-78
2023/04/12 16:02:18;;;;;;;8.87;4.73;;;12.10;99.90;;;;;;5136380;27;20620;-77
2023/04/12 16:04:45;;;;;;;5.90;3.20;;;12.10;99.90;;;;;;5135381;27;20201;-77
2023/04/12 16:07:10;;;;;;;11.63;6.17;;;12.10;99.90;;;;;;5135332;27;20183;-78
2023/04/12 16:51:17;;;;;;;1.30;1.10;;;11.70;99.90;;;;;;5133342;27;20752;-78
2023/04/12 17:02:33;;;;;;;1.90;0.80;;;11.50;99.90;;;;;;5134602;27;20266;-78
